CYPR/YPR METAR and TAF weather

Enter ICAO airport designator
Station Type Date Time Source
CYPR METAR 2022/05/23 13:41 UTC NOAA

CYPR 231341Z AUTO 26008KT 2 1/4SM -RA BR BKN004 OVC013 07/07 A3013 RMK SLP207


Station Type Date Time Source
CYPR Decoded METAR 2022/05/23 13:41 UTC NOAA

Prince Rupert, B. C., Canada (CYPR) 54-18N 130-26W 34M
May 23, 2022 - 09:41 AM EDT / 2022.05.23 1341 UTC
Wind: from the W (260 degrees) at 9 MPH (8 KT):0
Visibility: 2 1/4 mile(s):0
Sky conditions: overcast
Weather: light rain; mist
Temperature: 44 F (7 C)
Dew Point: 44 F (7 C)
Relative Humidity: 100%
Pressure (altimeter): 30.13 in. Hg (1020 hPa)
ob: CYPR 231341Z AUTO 26008KT 2 1/4SM -RA BR BKN004 OVC013 07/07 A3013 RMK SLP207
cycle: 13

Station Type Date Time Source
CYPR TAF 2022/05/23 13:42 UTC NOAA

TAF CYPR 231240Z 2313/2401 16006KT 6SM -RA BR SCT008 OVC025
TEMPO 2313/2318 1SM -SHRA BR OVC008
BECMG 2313/2315 27008KT
FM231800 27008KT P6SM SCT012 BKN025
TEMPO 2318/2323 6SM -SHRA BR BKN012
FM232300 27006KT P6SM SCT020
TEMPO 2323/2401 BKN020
RMK FCST BASED ON AUTO OBS. NXT FCST BY 231900Z

Example: see airport list